Carnival Vista — 3EMB9 — position and weather

sailwx.info

Track history (hours):
 
Tides and Currents Weather Stations Pressure Air Temp Water Temp Dewpoint Dewpoint Depression Visibility Wind Speed Wind Dir Waves Ship Positions

Carnival Vista

Last reported at 2017-Apr-23 00:46 UTC. Time now 2017-Apr-27 18:50 UTC.
Position N 26°09' W 079°24'.

Length 324 m; draft 8.6 m.

Type: Passenger vessel. MMSI: 356883000.

Date/timePositionNaut miles runAvg speedWind from/ knotsBaromVisibWave heightAir tempDewpointWater temp
2017-Apr-23 00:46N 26°09' W 079°24'518.0
2017-Apr-23 00:30N 26°06' W 079°29'917.9
2017-Apr-23 00:00N 26°01' W 079°37'714.9
2017-Apr-22 23:30N 25°57' W 079°43'815.0
2017-Apr-22 23:00N 25°52' W 079°50'714.7
2017-Apr-22 22:30N 25°49' W 079°58'713.1
2017-Apr-22 22:00N 25°47' W 080°04'4 8.7
2017-Apr-22 21:30N 25°46' W 080°09'1 1.6
2017-Apr-22 20:59N 25°47' W 080°10'0 0.0
2017-Apr-22 20:29N 25°47' W 080°10'0 0.0
2017-Apr-22 19:59N 25°47' W 080°10'0 0.0
2017-Apr-22 19:29N 25°47' W 080°10'0 0.0
2017-Apr-22 18:59N 25°47' W 080°10'0 0.0
2017-Apr-22 18:29N 25°47' W 080°10'0 0.0
2017-Apr-22 17:59N 25°47' W 080°10'0 0.0
2017-Apr-22 17:29N 25°47' W 080°10'0 0.0
2017-Apr-22 16:59N 25°47' W 080°10'0 0.0
2017-Apr-22 16:29N 25°47' W 080°10'0 0.0
2017-Apr-22 15:59N 25°47' W 080°10'0 0.0
2017-Apr-22 15:29N 25°47' W 080°10'0 0.0
2017-Apr-22 14:59N 25°47' W 080°10'0 0.0
2017-Apr-22 13:59N 25°47' W 080°10'0 0.0
2017-Apr-22 13:29N 25°47' W 080°10'0 0.0
2017-Apr-22 12:59N 25°47' W 080°10'0 0.0
2017-Apr-22 12:29N 25°47' W 080°10'0 0.0
2017-Apr-22 11:59N 25°47' W 080°10'0 0.0
2017-Apr-22 11:29N 25°47' W 080°10'0 0.0
2017-Apr-22 10:59N 25°47' W 080°10'0 0.0
2017-Apr-22 10:29N 25°47' W 080°10'0 0.0
2017-Apr-22 09:59N 25°47' W 080°10'0 0.0
2017-Apr-22 09:29N 25°47' W 080°10'0 0.0
2017-Apr-22 08:59N 25°47' W 080°10'0 0.0
2017-Apr-22 08:30N 25°47' W 080°10'1 1.8
2017-Apr-22 08:01N 25°47' W 080°11'2 4.2
2017-Apr-22 07:30N 25°46' W 080°09'5 9.3
2017-Apr-22 07:00N 25°46' W 080°04'612.0
2017-Apr-22 06:30N 25°42' W 079°59'1122.2
2017-Apr-22 06:01N 25°32' W 079°53'1122.4
2017-Apr-22 05:30N 25°22' W 079°48'49116.3
2017-Apr-20 23:27N 20°33' W 086°58'4 8.8
2017-Apr-20 23:00N 20°29' W 086°59'1 1.1
2017-Apr-20 22:25N 20°29' W 086°59'0 0.0
2017-Apr-20 21:56N 20°29' W 086°59'0 0.0
2017-Apr-20 21:26N 20°29' W 086°59'0 0.0
2017-Apr-20 20:55N 20°29' W 086°59'0 0.0
2017-Apr-20 20:25N 20°29' W 086°59'0 0.0
2017-Apr-20 19:55N 20°29' W 086°59'0 0.0
2017-Apr-20 19:26N 20°29' W 086°59'0 0.0
2017-Apr-20 18:55N 20°29' W 086°59'0 0.0
2017-Apr-20 18:26N 20°29' W 086°59'0 0.0
2017-Apr-20 17:55N 20°29' W 086°59'0 0.0
2017-Apr-20 17:25N 20°29' W 086°59'0 0.0
2017-Apr-20 16:55N 20°29' W 086°59'0 0.0
2017-Apr-20 16:19N 20°29' W 086°59'0 0.0
2017-Apr-20 15:55N 20°29' W 086°59'0 0.0
2017-Apr-20 15:26N 20°29' W 086°59'0 0.0
2017-Apr-20 14:56N 20°29' W 086°59'0 0.0
2017-Apr-20 14:25N 20°29' W 086°59'0 0.1
2017-Apr-20 13:30N 20°29' W 086°59'2 4.0
2017-Apr-20 13:01N 20°31' W 086°59'4 8.4
2017-Apr-20 12:30N 20°34' W 086°57'612.6
2017-Apr-20 12:00N 20°39' W 086°53'714.3
2017-Apr-20 11:30N 20°41' W 086°45'  
2017-Apr-16 22:09N 25°36' W 079°50'214.9
2017-Apr-16 22:00N 25°38' W 079°52'714.7
2017-Apr-16 21:30N 25°42' W 079°58'713.1
2017-Apr-16 21:00N 25°46' W 080°04'4 8.6
2017-Apr-16 20:30N 25°46' W 080°09'1 1.8
2017-Apr-16 20:00N 25°47' W 080°10'0 0.0
2017-Apr-16 19:27N 25°47' W 080°10'0 0.0
2017-Apr-16 18:57N 25°47' W 080°10'0 0.0
2017-Apr-16 18:24N 25°47' W 080°10'0 0.0
2017-Apr-16 18:00N 25°47' W 080°10'0 0.0
2017-Apr-16 17:30N 25°47' W 080°10'0 0.0
2017-Apr-16 17:00N 25°47' W 080°10'0 0.0
2017-Apr-16 16:30N 25°47' W 080°10'0 0.0
2017-Apr-16 16:00N 25°47' W 080°10'0 0.0
2017-Apr-16 15:30N 25°47' W 080°10'0 0.0
2017-Apr-16 15:00N 25°47' W 080°10'0 0.0
2017-Apr-16 14:00N 25°47' W 080°10'0 0.0
2017-Apr-16 13:30N 25°47' W 080°10'0 0.0
2017-Apr-16 13:00N 25°47' W 080°10'0 0.0
2017-Apr-16 12:30N 25°47' W 080°10'0 0.0
2017-Apr-16 12:00N 25°47' W 080°10'0 0.0
2017-Apr-16 11:30N 25°47' W 080°10'0 0.0
2017-Apr-16 11:00N 25°47' W 080°10'0 0.0
2017-Apr-16 10:30N 25°47' W 080°10'0 0.0
2017-Apr-16 10:00N 25°47' W 080°10'0 0.0
2017-Apr-16 09:30N 25°47' W 080°10'0 0.1
2017-Apr-16 09:00N 25°47' W 080°10'1 1.3
2017-Apr-16 08:31N 25°47' W 080°11'3 6.7
2017-Apr-16 08:01N 25°46' W 080°07'4 7.9
2017-Apr-16 07:31N 25°47' W 080°03'713.6
2017-Apr-16 07:00N 25°50' W 079°57'816.0
2017-Apr-16 06:30N 25°54' W 079°49'816.3
2017-Apr-16 06:00N 25°57' W 079°40'917.1
2017-Apr-16 05:30N 26°03' W 079°33'918.4
2017-Apr-16 05:00N 26°08' W 079°25'1019.9
2017-Apr-16 04:30N 26°14' W 079°16'  
2017-Apr-13 23:04N 18°08' W 063°18'217.2
2017-Apr-13 22:56N 18°06' W 063°16'818.3
2017-Apr-13 22:28N 18°01' W 063°09'611.4
2017-Apr-13 21:59N 18°01' W 063°03'0 0.2
2017-Apr-13 19:08N 18°01' W 063°03'0 0.0
2017-Apr-13 11:53N 18°01' W 063°03'0 0.2
2017-Apr-13 11:23N 18°01' W 063°03'2 5.2
2017-Apr-13 10:57N 18°00' W 063°05'3 6.0
2017-Apr-13 10:27N 17°58' W 063°07'3 6.7
2017-Apr-13 10:00N 17°55' W 063°07'4 6.9
2017-Apr-13 09:28N 17°51' W 063°07'3 7.2
2017-Apr-13 08:59N 17°48' W 063°07'4 7.0
2017-Apr-13 08:29N 17°44' W 063°07'2 3.3
2017-Apr-13 07:58N 17°43' W 063°07'0 0.5
2017-Apr-13 07:30N 17°43' W 063°07'0 0.6
2017-Apr-13 06:58N 17°42' W 063°07'0 0.6
2017-Apr-13 06:26N 17°42' W 063°07'2 4.8
2017-Apr-13 05:56N 17°40' W 063°06'3 6.7
2017-Apr-13 05:30N 17°37' W 063°06'6 6.3
2017-Apr-13 04:33N 17°31' W 063°06'  
Track history (hours):
 
Tides and Currents Weather Stations Pressure Air Temp Water Temp Dewpoint Dewpoint Depression Visibility Wind Speed Wind Dir Waves Ship Positions

Carnival Vista

Last reported at 2017-Apr-23 00:46 UTC. Time now 2017-Apr-27 18:50 UTC.
Position N 26°09' W 079°24'.

Length 324 m; draft 8.6 m.

Type: Passenger vessel. MMSI: 356883000.

Date/timePositionNaut miles runAvg speedWind from/ knotsBaromVisibWave heightAir tempDewpointWater temp
2017-Apr-23 00:46N 26°09' W 079°24'518.0
2017-Apr-23 00:30N 26°06' W 079°29'917.9
2017-Apr-23 00:00N 26°01' W 079°37'714.9
2017-Apr-22 23:30N 25°57' W 079°43'815.0
2017-Apr-22 23:00N 25°52' W 079°50'714.7
2017-Apr-22 22:30N 25°49' W 079°58'713.1
2017-Apr-22 22:00N 25°47' W 080°04'4 8.7
2017-Apr-22 21:30N 25°46' W 080°09'1 1.6
2017-Apr-22 20:59N 25°47' W 080°10'0 0.0
2017-Apr-22 20:29N 25°47' W 080°10'0 0.0
2017-Apr-22 19:59N 25°47' W 080°10'0 0.0
2017-Apr-22 19:29N 25°47' W 080°10'0 0.0
2017-Apr-22 18:59N 25°47' W 080°10'0 0.0
2017-Apr-22 18:29N 25°47' W 080°10'0 0.0
2017-Apr-22 17:59N 25°47' W 080°10'0 0.0
2017-Apr-22 17:29N 25°47' W 080°10'0 0.0
2017-Apr-22 16:59N 25°47' W 080°10'0 0.0
2017-Apr-22 16:29N 25°47' W 080°10'0 0.0
2017-Apr-22 15:59N 25°47' W 080°10'0 0.0
2017-Apr-22 15:29N 25°47' W 080°10'0 0.0
2017-Apr-22 14:59N 25°47' W 080°10'0 0.0
2017-Apr-22 13:59N 25°47' W 080°10'0 0.0
2017-Apr-22 13:29N 25°47' W 080°10'0 0.0
2017-Apr-22 12:59N 25°47' W 080°10'0 0.0
2017-Apr-22 12:29N 25°47' W 080°10'0 0.0
2017-Apr-22 11:59N 25°47' W 080°10'0 0.0
2017-Apr-22 11:29N 25°47' W 080°10'0 0.0
2017-Apr-22 10:59N 25°47' W 080°10'0 0.0
2017-Apr-22 10:29N 25°47' W 080°10'0 0.0
2017-Apr-22 09:59N 25°47' W 080°10'0 0.0
2017-Apr-22 09:29N 25°47' W 080°10'0 0.0
2017-Apr-22 08:59N 25°47' W 080°10'0 0.0
2017-Apr-22 08:30N 25°47' W 080°10'1 1.8
2017-Apr-22 08:01N 25°47' W 080°11'2 4.2
2017-Apr-22 07:30N 25°46' W 080°09'5 9.3
2017-Apr-22 07:00N 25°46' W 080°04'612.0
2017-Apr-22 06:30N 25°42' W 079°59'1122.2
2017-Apr-22 06:01N 25°32' W 079°53'1122.4
2017-Apr-22 05:30N 25°22' W 079°48'49116.3
2017-Apr-20 23:27N 20°33' W 086°58'4 8.8
2017-Apr-20 23:00N 20°29' W 086°59'1 1.1
2017-Apr-20 22:25N 20°29' W 086°59'0 0.0
2017-Apr-20 21:56N 20°29' W 086°59'0 0.0
2017-Apr-20 21:26N 20°29' W 086°59'0 0.0
2017-Apr-20 20:55N 20°29' W 086°59'0 0.0
2017-Apr-20 20:25N 20°29' W 086°59'0 0.0
2017-Apr-20 19:55N 20°29' W 086°59'0 0.0
2017-Apr-20 19:26N 20°29' W 086°59'0 0.0
2017-Apr-20 18:55N 20°29' W 086°59'0 0.0
2017-Apr-20 18:26N 20°29' W 086°59'0 0.0
2017-Apr-20 17:55N 20°29' W 086°59'0 0.0
2017-Apr-20 17:25N 20°29' W 086°59'0 0.0
2017-Apr-20 16:55N 20°29' W 086°59'0 0.0
2017-Apr-20 16:19N 20°29' W 086°59'0 0.0
2017-Apr-20 15:55N 20°29' W 086°59'0 0.0
2017-Apr-20 15:26N 20°29' W 086°59'0 0.0
2017-Apr-20 14:56N 20°29' W 086°59'0 0.0
2017-Apr-20 14:25N 20°29' W 086°59'0 0.1
2017-Apr-20 13:30N 20°29' W 086°59'2 4.0
2017-Apr-20 13:01N 20°31' W 086°59'4 8.4
2017-Apr-20 12:30N 20°34' W 086°57'612.6
2017-Apr-20 12:00N 20°39' W 086°53'714.3
2017-Apr-20 11:30N 20°41' W 086°45'  
2017-Apr-16 22:09N 25°36' W 079°50'214.9
2017-Apr-16 22:00N 25°38' W 079°52'714.7
2017-Apr-16 21:30N 25°42' W 079°58'713.1
2017-Apr-16 21:00N 25°46' W 080°04'4 8.6
2017-Apr-16 20:30N 25°46' W 080°09'1 1.8
2017-Apr-16 20:00N 25°47' W 080°10'0 0.0
2017-Apr-16 19:27N 25°47' W 080°10'0 0.0
2017-Apr-16 18:57N 25°47' W 080°10'0 0.0
2017-Apr-16 18:24N 25°47' W 080°10'0 0.0
2017-Apr-16 18:00N 25°47' W 080°10'0 0.0
2017-Apr-16 17:30N 25°47' W 080°10'0 0.0
2017-Apr-16 17:00N 25°47' W 080°10'0 0.0
2017-Apr-16 16:30N 25°47' W 080°10'0 0.0
2017-Apr-16 16:00N 25°47' W 080°10'0 0.0
2017-Apr-16 15:30N 25°47' W 080°10'0 0.0
2017-Apr-16 15:00N 25°47' W 080°10'0 0.0
2017-Apr-16 14:00N 25°47' W 080°10'0 0.0
2017-Apr-16 13:30N 25°47' W 080°10'0 0.0
2017-Apr-16 13:00N 25°47' W 080°10'0 0.0
2017-Apr-16 12:30N 25°47' W 080°10'0 0.0
2017-Apr-16 12:00N 25°47' W 080°10'0 0.0
2017-Apr-16 11:30N 25°47' W 080°10'0 0.0
2017-Apr-16 11:00N 25°47' W 080°10'0 0.0
2017-Apr-16 10:30N 25°47' W 080°10'0 0.0
2017-Apr-16 10:00N 25°47' W 080°10'0 0.0
2017-Apr-16 09:30N 25°47' W 080°10'0 0.1
2017-Apr-16 09:00N 25°47' W 080°10'1 1.3
2017-Apr-16 08:31N 25°47' W 080°11'3 6.7
2017-Apr-16 08:01N 25°46' W 080°07'4 7.9
2017-Apr-16 07:31N 25°47' W 080°03'713.6
2017-Apr-16 07:00N 25°50' W 079°57'816.0
2017-Apr-16 06:30N 25°54' W 079°49'816.3
2017-Apr-16 06:00N 25°57' W 079°40'917.1
2017-Apr-16 05:30N 26°03' W 079°33'918.4
2017-Apr-16 05:00N 26°08' W 079°25'1019.9
2017-Apr-16 04:30N 26°14' W 079°16'  
2017-Apr-13 23:04N 18°08' W 063°18'217.2
2017-Apr-13 22:56N 18°06' W 063°16'818.3
2017-Apr-13 22:28N 18°01' W 063°09'611.4
2017-Apr-13 21:59N 18°01' W 063°03'0 0.2
2017-Apr-13 19:08N 18°01' W 063°03'0 0.0
2017-Apr-13 11:53N 18°01' W 063°03'0 0.2
2017-Apr-13 11:23N 18°01' W 063°03'2 5.2
2017-Apr-13 10:57N 18°00' W 063°05'3 6.0
2017-Apr-13 10:27N 17°58' W 063°07'3 6.7
2017-Apr-13 10:00N 17°55' W 063°07'4 6.9
2017-Apr-13 09:28N 17°51' W 063°07'3 7.2
2017-Apr-13 08:59N 17°48' W 063°07'4 7.0
2017-Apr-13 08:29N 17°44' W 063°07'2 3.3
2017-Apr-13 07:58N 17°43' W 063°07'0 0.5
2017-Apr-13 07:30N 17°43' W 063°07'0 0.6
2017-Apr-13 06:58N 17°42' W 063°07'0 0.6
2017-Apr-13 06:26N 17°42' W 063°07'2 4.8
2017-Apr-13 05:56N 17°40' W 063°06'3 6.7
2017-Apr-13 05:30N 17°37' W 063°06'6 6.3
2017-Apr-13 04:33N 17°31' W 063°06'  

Dump ship's entire track history